渥太华麦克唐纳-卡蒂埃国际机场

METAR CYOW

罗盘
风向 的 风向 220° 渥太华麦克唐纳-卡蒂埃国际机场 4/22
风向 到 风: 16 kt, 阵阵 21 kt, 4 beaufort

16 kt

4 kt
改变
0 2.000 4.000 6.000 8.000 10.000
FEW 8.000 ft
METAR KMSS 022053Z AUTO 22016G21KT 10SM FEW080 26/11 A2985 RMK AO2 SLP106 T02560111 55004

METAR 渥太华麦克唐纳-卡蒂埃国际机场

渥太华麦克唐纳-卡蒂埃国际机场是Ottawa,加拿大中的大型机场。 该机场有3条跑道: 4/22, 7/25 和 14/32.

这份报告是针对2022年7月2日 4:53 下午, 当地时间在Massena International Richards Field进行的。

机场观察

风向为220°,速度为16 kt。 已测得21 kt的阵风。

可见度为10 mi。

有几云在8.000 ft的高度。 没有观察到天花板。

温度和风寒是79 °F。 露点为52 °F,相对湿度为39%。 海平面上的气压为29,85 inHg (QNH)。

白天

今天,太阳从5:19 上午升起,在8:54 下午降落。 这适用于渥太华麦克唐纳-卡蒂埃国际机场,世界夏令时可能有所不同。 当地时间与世界标准时间之间的时差为-4 小时。 夏令时目前正在进行中。

公司介绍

在这个机场,你可以找到飞行学校。 本场上唯一已知的公司是Ottawa Flying Club。

体会

到Vliegles.nl去找飞行课程,跳伞和其他飞行体验。 浏览页面,了解渥太华麦克唐纳-卡蒂埃国际机场附近所有可用的活动。 你也可以使用搜索功能来寻找你所在地附近的特定飞行课程、跳伞或其他飞行体验。

您会帮助我们保持Metar-Taf.com正常运行吗?
您的贡献有助于网站的进一步开发并支付费用。

没有更多广告

您是捐款5美元还是更多?然后,我们将永远不会再向您展示广告,这是我们永恒的感谢!
捐赠前先登录

跑道

Id 标题 侧风 逆风 侧风 %
4/22 026°-206° 4-5 kt 16-20 kt 24 %
7/25 057°-237° 5-6 kt 15-20 kt 29 %
14/32 126°-306° 16-21 kt 1-1 kt 100 %

逆风成分最大的方向会被突出显示,并用于横风计算。 这并不一定意味着这个方向在使用。

乌云

8.000 ft FEW 几云

温度 & 天气

温度 78,0 °F
露点 52,0 °F
相对湿度 39%
Kp-index 0  

评论

AO2自动气象站,可确定降水类型
SLP106海平面压力为29,84 inHg (29,84 inHg)
T02560111温度为78,0 °F (78,1 °F),露点为52,0 °F (52,0 °F)
55004

公司介绍

新增公司

下载我们的应用程序

在您的手机和平板电脑上轻松访问所有航空天气。
有许多网站上没有的功能,如离线支持和个人机场列表。

Studio Eveline

Benalmádena
España

我们和第三方通过cookies跟踪您在我们网站上的上网行为。如果您继续,我们认为您同意我们的cookie政策。 了解更多